Time;durP1;ratioP1;P1;durP2;ratioP2;P2;SDS_P1;SDS_P2;PMS_P1;PMS_P2;Temp;Humidity;BMP_temperature;BMP_pressure;BME280_temperature;BME280_humidity;BME280_pressure;Samples;Min_cycle;Max_cycle;Signal;HPM_P1;HPM_P2
2022/09/04 00:01:43;;;;;;;3.38;3.17;;;17.00;86.20;;;;;;4991631;28;20201;-76
2022/09/04 00:04:53;;;;;;;3.13;2.83;;;17.00;86.60;;;;;;5004670;28;20245;-76
2022/09/04 00:07:28;;;;;;;2.97;2.78;;;17.10;87.00;;;;;;5052279;28;20200;-77
2022/09/04 00:10:01;;;;;;;2.70;2.60;;;17.00;86.60;;;;;;5053657;28;20192;-76
2022/09/04 00:12:32;;;;;;;3.00;2.90;;;17.00;87.00;;;;;;5057924;28;20221;-76
2022/09/04 00:15:15;;;;;;;3.45;3.30;;;17.00;86.80;;;;;;5053530;28;20266;-76
2022/09/04 00:18:04;;;;;;;3.03;2.92;;;17.00;86.50;;;;;;5052958;28;20810;-76
2022/09/04 00:20:49;;;;;;;2.90;2.53;;;17.00;86.40;;;;;;5049339;28;20180;-77
2022/09/04 00:23:26;;;;;;;3.28;3.05;;;17.00;87.00;;;;;;5052245;28;20246;-76
2022/09/04 00:26:03;;;;;;;3.85;3.38;;;17.00;86.80;;;;;;5054066;28;20194;-76
2022/09/04 00:28:41;;;;;;;2.95;2.78;;;17.00;87.60;;;;;;5053677;28;20182;-76
2022/09/04 00:31:35;;;;;;;3.38;3.17;;;17.00;86.90;;;;;;5051630;28;20183;-76
2022/09/04 00:34:19;;;;;;;3.00;2.80;;;17.00;86.60;;;;;;5052729;28;20179;-77
2022/09/04 00:36:49;;;;;;;3.45;3.15;;;17.00;87.30;;;;;;5054236;28;20194;-76
2022/09/04 00:39:20;;;;;;;3.85;3.58;;;17.00;87.10;;;;;;5052847;28;20838;-76
2022/09/04 00:42:07;;;;;;;3.22;3.10;;;17.00;87.00;;;;;;5054298;28;20202;-76
2022/09/04 00:45:00;;;;;;;4.90;3.53;;;17.00;86.50;;;;;;5053866;28;20229;-76
2022/09/04 00:47:40;;;;;;;3.65;3.35;;;17.00;86.90;;;;;;5054425;28;20612;-76
2022/09/04 00:50:08;;;;;;;3.80;3.60;;;17.00;87.10;;;;;;5047972;28;20263;-77
2022/09/04 00:53:11;;;;;;;4.82;3.38;;;17.00;87.30;;;;;;5053062;28;20611;-76
2022/09/04 00:56:01;;;;;;;3.40;3.20;;;16.90;86.60;;;;;;5049176;28;20191;-76
2022/09/04 00:58:34;;;;;;;3.28;3.03;;;16.90;87.70;;;;;;5050039;28;20191;-76
2022/09/04 01:01:00;;;;;;;3.30;3.05;;;16.90;87.70;;;;;;5057548;28;20178;-76
2022/09/04 01:03:29;;;;;;;3.20;3.00;;;16.90;87.80;;;;;;5056908;28;20707;-76
2022/09/04 01:06:36;;;;;;;4.00;3.58;;;16.90;87.60;;;;;;5053688;28;20244;-77
2022/09/04 01:09:30;;;;;;;5.70;4.97;;;16.90;87.30;;;;;;5030910;28;20756;-76
2022/09/04 01:12:22;;;;;;;5.05;4.03;;;16.80;87.00;;;;;;5030204;28;20627;-76
2022/09/04 01:15:13;;;;;;;4.18;3.88;;;16.80;87.00;;;;;;5030421;28;20277;-76
2022/09/04 01:18:01;;;;;;;3.50;3.28;;;16.80;87.10;;;;;;5034118;28;20187;-76
2022/09/04 01:20:50;;;;;;;3.72;3.50;;;16.80;87.80;;;;;;5031642;28;20191;-76
2022/09/04 01:23:42;;;;;;;4.53;4.13;;;16.70;87.30;;;;;;5030839;28;20299;-76
2022/09/04 01:26:16;;;;;;;3.05;2.95;;;16.60;87.20;;;;;;5031597;28;20880;-76
2022/09/04 01:29:27;;;;;;;3.90;3.10;;;16.60;87.30;;;;;;5025961;28;20565;-76
2022/09/04 01:32:11;;;;;;;3.15;3.00;;;16.60;87.60;;;;;;5001752;28;20201;-76
2022/09/04 01:34:59;;;;;;;3.80;3.65;;;16.60;87.30;;;;;;5001009;28;20726;-76
2022/09/04 01:37:46;;;;;;;3.42;3.15;;;16.50;88.10;;;;;;5002105;28;20283;-76
2022/09/04 01:40:45;;;;;;;3.88;3.58;;;16.50;87.60;;;;;;5005202;28;20211;-76
2022/09/04 01:43:17;;;;;;;4.20;4.00;;;16.50;87.50;;;;;;5006501;28;20598;-76
2022/09/04 01:45:54;;;;;;;4.10;3.80;;;16.50;88.40;;;;;;5012843;28;20292;-76
2022/09/04 01:48:56;;;;;;;7.60;3.85;;;16.50;88.00;;;;;;5023451;28;20205;-77
2022/09/04 01:51:39;;;;;;;3.75;3.45;;;16.50;87.80;;;;;;4946794;29;20209;-76
2022/09/04 01:54:14;;;;;;;3.13;3.03;;;16.50;88.60;;;;;;4947269;29;20222;-76
2022/09/04 01:56:50;;;;;;;3.03;2.92;;;16.50;89.70;;;;;;4947051;29;20204;-76
2022/09/04 01:59:37;;;;;;;3.20;2.90;;;16.50;89.40;;;;;;4946458;29;20194;-76
2022/09/04 02:02:40;;;;;;;3.22;3.03;;;16.50;89.70;;;;;;4946644;29;20195;-76
2022/09/04 02:05:17;;;;;;;3.40;3.20;;;16.40;89.00;;;;;;4943576;29;20217;-76
2022/09/04 02:07:51;;;;;;;3.97;2.80;;;16.40;89.20;;;;;;4958795;28;20190;-76
2022/09/04 02:10:51;;;;;;;3.53;3.33;;;16.40;89.20;;;;;;4974102;28;20339;-76
2022/09/04 02:13:39;;;;;;;3.25;2.92;;;16.30;88.60;;;;;;4975094;28;20908;-76
2022/09/04 02:16:29;;;;;;;2.90;2.70;;;16.30;89.20;;;;;;4956456;28;20208;-76
2022/09/04 02:19:22;;;;;;;2.92;2.72;;;16.20;88.80;;;;;;4974591;28;20198;-76
2022/09/04 02:22:00;;;;;;;2.85;2.65;;;16.20;88.40;;;;;;4976589;28;20277;-76
2022/09/04 02:24:34;;;;;;;6.18;2.50;;;16.20;88.80;;;;;;4978426;28;20233;-76
2022/09/04 02:27:29;;;;;;;2.38;2.28;;;16.20;89.10;;;;;;4975335;28;20276;-76
2022/09/04 02:30:03;;;;;;;2.75;2.65;;;16.10;88.90;;;;;;5052024;28;20577;-76
2022/09/04 02:33:14;;;;;;;2.78;2.67;;;16.10;89.20;;;;;;5053513;28;20264;-76
2022/09/04 02:36:05;;;;;;;2.67;2.58;;;16.10;89.00;;;;;;5029543;28;20192;-76
2022/09/04 02:38:33;;;;;;;3.28;2.92;;;16.10;89.20;;;;;;5036288;28;20192;-76
2022/09/04 02:41:05;;;;;;;2.90;2.78;;;16.00;89.60;;;;;;5027007;28;20753;-76
2022/09/04 02:43:57;;;;;;;2.30;2.20;;;16.00;89.60;;;;;;5031677;28;20712;-75
2022/09/04 02:46:53;;;;;;;2.85;2.65;;;16.00;89.20;;;;;;5032468;28;20203;-76
2022/09/04 02:49:40;;;;;;;3.08;2.88;;;16.00;90.10;;;;;;5035206;28;20200;-76
2022/09/04 02:52:45;;;;;;;2.40;2.30;;;16.00;90.10;;;;;;5030145;28;20196;-76
2022/09/04 02:55:18;;;;;;;3.13;2.78;;;15.90;90.10;;;;;;5037973;28;20192;-76
2022/09/04 02:57:49;;;;;;;2.42;2.28;;;15.90;90.70;;;;;;5027984;28;20184;-76
2022/09/04 03:00:18;;;;;;;2.58;2.47;;;15.90;90.90;;;;;;5031907;28;20188;-76
2022/09/04 03:02:46;;;;;;;2.72;2.63;;;15.80;91.00;;;;;;5012134;28;20226;-76
2022/09/04 03:05:19;;;;;;;2.95;2.75;;;15.80;90.50;;;;;;5028139;28;20676;-76
2022/09/04 03:07:58;;;;;;;2.72;2.63;;;15.70;89.90;;;;;;5033420;28;20267;-76
2022/09/04 03:10:42;;;;;;;2.88;2.67;;;15.70;90.00;;;;;;5032118;28;20188;-76
2022/09/04 03:13:32;;;;;;;2.20;2.20;;;15.70;89.90;;;;;;5051586;28;20191;-76
2022/09/04 03:16:27;;;;;;;2.75;2.63;;;15.70;89.90;;;;;;5054200;28;20179;-76
2022/09/04 03:18:55;;;;;;;2.90;2.80;;;15.70;90.40;;;;;;5056543;28;20186;-76
2022/09/04 03:21:54;;;;;;;3.58;3.30;;;15.70;91.10;;;;;;5056415;28;20182;-76
2022/09/04 03:24:58;;;;;;;2.78;2.28;;;15.60;90.10;;;;;;5055922;28;20301;-76
2022/09/04 03:27:25;;;;;;;2.10;2.00;;;15.60;89.90;;;;;;5058065;28;20194;-76
2022/09/04 03:30:02;;;;;;;6.03;2.65;;;15.60;90.60;;;;;;5051408;28;20183;-76
2022/09/04 03:32:34;;;;;;;2.55;2.45;;;15.50;89.90;;;;;;5071961;28;20220;-76
2022/09/04 03:35:17;;;;;;;5.60;3.35;;;15.50;90.60;;;;;;5054157;28;20180;-76
2022/09/04 03:37:58;;;;;;;3.35;3.15;;;15.50;90.80;;;;;;5055025;28;20184;-75
2022/09/04 03:40:35;;;;;;;3.42;3.22;;;15.50;91.60;;;;;;5057591;28;20195;-75
2022/09/04 03:43:37;;;;;;;4.65;3.78;;;15.50;91.60;;;;;;5056376;28;20238;-75
2022/09/04 03:46:18;;;;;;;3.88;3.58;;;15.50;91.80;;;;;;5056158;28;21141;-75
2022/09/04 03:49:25;;;;;;;4.07;3.67;;;15.40;92.10;;;;;;5050257;28;20208;-76
2022/09/04 03:52:13;;;;;;;3.75;3.50;;;15.40;92.30;;;;;;5050799;28;20191;-76
2022/09/04 03:55:06;;;;;;;3.78;3.17;;;15.30;92.50;;;;;;5052557;28;20210;-74
2022/09/04 03:57:37;;;;;;;3.95;3.45;;;15.10;93.50;;;;;;5055420;28;20191;-75
2022/09/04 04:00:11;;;;;;;3.70;3.40;;;15.10;93.90;;;;;;5054601;28;20288;-76
2022/09/04 04:02:54;;;;;;;3.67;3.35;;;15.10;93.60;;;;;;5054432;28;20275;-74
2022/09/04 04:05:23;;;;;;;4.18;3.67;;;15.10;93.80;;;;;;5052899;28;20661;-77
2022/09/04 04:07:59;;;;;;;3.88;3.58;;;15.10;94.10;;;;;;5052649;28;20261;-76
2022/09/04 04:10:34;;;;;;;3.47;3.28;;;15.10;94.30;;;;;;5046927;28;20183;-77
2022/09/04 04:13:03;;;;;;;3.70;3.40;;;15.00;94.00;;;;;;5051983;28;20581;-77
2022/09/04 04:16:07;;;;;;;4.25;3.67;;;15.00;94.20;;;;;;5052729;28;20270;-77
2022/09/04 04:18:58;;;;;;;3.65;3.35;;;15.00;94.20;;;;;;5056865;28;20623;-77
2022/09/04 04:21:54;;;;;;;3.67;3.38;;;15.00;94.50;;;;;;5051508;28;20187;-76
2022/09/04 04:24:30;;;;;;;5.00;4.00;;;15.00;94.10;;;;;;5053854;28;20227;-76
2022/09/04 04:27:31;;;;;;;3.72;3.15;;;15.00;94.90;;;;;;5052741;28;20181;-75
2022/09/04 04:30:14;;;;;;;4.63;4.15;;;14.90;94.90;;;;;;5055526;28;20180;-76
2022/09/04 04:32:59;;;;;;;4.10;3.53;;;15.00;94.80;;;;;;5054594;28;20563;-77
2022/09/04 04:35:52;;;;;;;4.07;3.63;;;15.00;93.90;;;;;;5058083;28;20179;-77
2022/09/04 04:38:25;;;;;;;7.40;4.00;;;14.90;93.50;;;;;;5049650;28;20876;-76
2022/09/04 04:41:03;;;;;;;3.58;3.35;;;15.00;94.40;;;;;;5053593;28;20180;-76
2022/09/04 04:43:44;;;;;;;3.42;3.25;;;15.10;94.40;;;;;;5054795;28;20302;-76
2022/09/04 04:46:19;;;;;;;4.18;3.83;;;15.00;94.90;;;;;;5053215;28;20180;-76
2022/09/04 04:48:56;;;;;;;3.55;3.30;;;15.00;94.60;;;;;;5086570;28;20194;-76
2022/09/04 04:51:56;;;;;;;3.38;3.17;;;15.00;93.70;;;;;;5054775;28;20857;-76
2022/09/04 04:55:09;;;;;;;2.78;2.65;;;15.10;92.80;;;;;;5055013;28;20187;-76
2022/09/04 04:57:46;;;;;;;3.20;2.95;;;15.10;93.60;;;;;;4972615;28;20273;-76
2022/09/04 05:00:18;;;;;;;3.38;3.15;;;15.20;93.10;;;;;;4969925;28;20209;-76
2022/09/04 05:03:05;;;;;;;8.55;3.78;;;15.20;93.20;;;;;;4973732;28;20213;-76
2022/09/04 05:05:42;;;;;;;5.40;3.55;;;15.30;92.20;;;;;;4970702;28;20963;-76
2022/09/04 05:08:37;;;;;;;3.88;3.58;;;15.30;92.20;;;;;;4970895;28;20194;-76
2022/09/04 05:11:21;;;;;;;6.47;4.03;;;15.30;93.00;;;;;;4932903;29;20278;-76
2022/09/04 05:14:07;;;;;;;3.47;3.17;;;15.40;92.60;;;;;;4935388;28;20722;-77
2022/09/04 05:17:10;;;;;;;5.00;3.90;;;15.40;92.00;;;;;;4929711;29;20690;-76
2022/09/04 05:19:51;;;;;;;3.75;3.45;;;15.40;91.80;;;;;;4932521;29;20191;-76
2022/09/04 05:22:41;;;;;;;4.10;3.80;;;15.50;92.80;;;;;;4914698;29;20206;-76
2022/09/04 05:25:28;;;;;;;3.70;3.40;;;15.60;91.80;;;;;;4932743;28;20198;-76
2022/09/04 05:27:56;;;;;;;4.03;3.63;;;15.70;91.50;;;;;;4929070;29;20226;-77
2022/09/04 05:30:48;;;;;;;3.78;3.47;;;15.80;91.80;;;;;;4930525;28;20225;-76
2022/09/04 05:33:22;;;;;;;5.82;3.78;;;15.90;92.30;;;;;;4948174;28;20201;-76
2022/09/04 05:35:57;;;;;;;6.78;3.88;;;16.00;91.50;;;;;;5014295;28;20197;-76
2022/09/04 05:38:42;;;;;;;4.38;3.97;;;16.10;91.50;;;;;;5013598;28;20294;-75
2022/09/04 05:41:29;;;;;;;5.00;3.90;;;16.20;91.50;;;;;;5009820;28;20364;-76
2022/09/04 05:44:16;;;;;;;4.82;3.95;;;16.30;90.60;;;;;;5008473;28;20734;-76
2022/09/04 05:47:15;;;;;;;3.20;3.03;;;16.40;91.00;;;;;;5006495;28;20290;-76
2022/09/04 05:50:00;;;;;;;4.28;3.97;;;16.60;91.40;;;;;;5055959;28;20190;-76
2022/09/04 05:53:03;;;;;;;5.97;4.53;;;16.70;90.60;;;;;;5059524;28;20187;-76
2022/09/04 05:55:31;;;;;;;4.32;3.92;;;16.80;90.60;;;;;;5049834;28;20309;-76
2022/09/04 05:58:12;;;;;;;4.68;3.75;;;16.90;90.90;;;;;;5048279;28;20186;-76
2022/09/04 06:01:07;;;;;;;3.85;3.60;;;17.00;91.70;;;;;;5054122;28;20188;-76
2022/09/04 06:03:57;;;;;;;4.85;4.35;;;17.10;90.80;;;;;;5048661;28;20322;-77
2022/09/04 06:06:52;;;;;;;4.75;4.35;;;17.20;90.40;;;;;;5052052;28;20184;-76
2022/09/04 06:09:55;;;;;;;4.95;4.18;;;17.20;90.40;;;;;;5053153;28;20187;-76
2022/09/04 06:12:51;;;;;;;4.90;4.40;;;17.30;90.40;;;;;;5048742;28;20237;-76
2022/09/04 06:15:40;;;;;;;5.80;5.13;;;17.40;90.40;;;;;;5053393;28;20296;-76
2022/09/04 06:18:40;;;;;;;5.18;4.63;;;17.40;90.50;;;;;;5050177;28;20179;-76
2022/09/04 06:21:40;;;;;;;4.88;4.47;;;17.50;90.40;;;;;;5027294;28;20224;-76
2022/09/04 06:24:28;;;;;;;5.00;4.50;;;17.50;90.60;;;;;;4951612;28;20638;-75
2022/09/04 06:27:05;;;;;;;5.88;5.05;;;17.60;90.60;;;;;;4953012;28;20195;-75
2022/09/04 06:29:36;;;;;;;5.35;4.90;;;17.70;90.40;;;;;;4951137;28;20196;-76
2022/09/04 06:32:21;;;;;;;4.47;4.13;;;17.80;90.50;;;;;;4958051;28;20199;-76
2022/09/04 06:35:08;;;;;;;4.95;4.55;;;17.80;90.00;;;;;;4956188;28;20198;-76
2022/09/04 06:37:52;;;;;;;4.68;4.38;;;17.90;89.70;;;;;;4958119;28;20354;-76
2022/09/04 06:40:33;;;;;;;6.00;4.45;;;18.00;89.90;;;;;;4953387;28;20277;-76
2022/09/04 06:43:02;;;;;;;4.25;3.97;;;18.00;89.40;;;;;;4958032;28;20221;-76
2022/09/04 06:46:02;;;;;;;5.05;4.72;;;18.00;89.60;;;;;;4934253;28;20306;-76
2022/09/04 06:48:59;;;;;;;4.80;4.40;;;18.10;89.80;;;;;;4911515;29;20832;-76
2022/09/04 06:51:42;;;;;;;6.65;5.30;;;18.10;89.40;;;;;;4858292;29;20230;-76
2022/09/04 06:54:16;;;;;;;6.65;5.28;;;18.10;89.80;;;;;;4858365;29;20685;-76
2022/09/04 06:56:59;;;;;;;9.85;6.00;;;18.10;89.70;;;;;;4862495;29;20208;-76
2022/09/04 06:59:58;;;;;;;6.10;5.50;;;18.10;89.20;;;;;;4860973;29;20202;-76
2022/09/04 07:02:38;;;;;;;6.82;5.97;;;18.20;89.00;;;;;;4916022;29;20317;-76
2022/09/04 07:05:26;;;;;;;6.85;6.03;;;18.20;89.30;;;;;;4913837;29;20223;-75
2022/09/04 07:08:13;;;;;;;13.00;6.20;;;18.20;89.70;;;;;;4919350;29;20255;-75
2022/09/04 07:10:53;;;;;;;8.10;6.25;;;18.30;89.20;;;;;;4904967;29;20246;-74
2022/09/04 07:13:44;;;;;;;6.00;5.32;;;18.40;89.20;;;;;;4913280;29;20283;-75
2022/09/04 07:16:24;;;;;;;10.57;5.55;;;18.40;88.90;;;;;;4913122;29;20298;-77
2022/09/04 07:19:09;;;;;;;6.30;5.68;;;18.40;89.00;;;;;;4915464;29;20199;-77
2022/09/04 07:21:53;;;;;;;7.72;6.28;;;18.50;89.40;;;;;;4913866;29;20196;-76
2022/09/04 07:24:56;;;;;;;5.03;4.63;;;18.60;89.30;;;;;;4916188;28;20232;-76
2022/09/04 07:27:49;;;;;;;7.60;5.72;;;18.70;88.90;;;;;;4960929;28;20271;-76
2022/09/04 07:30:18;;;;;;;7.97;5.35;;;18.80;89.10;;;;;;5054089;28;20186;-76
2022/09/04 07:33:03;;;;;;;8.27;6.40;;;18.90;89.50;;;;;;5053951;28;20198;-77
2022/09/04 07:36:06;;;;;;;6.65;5.72;;;19.00;88.50;;;;;;5052927;28;20200;-76
2022/09/04 07:38:57;;;;;;;6.97;6.32;;;19.10;88.70;;;;;;5051277;28;20175;-76
2022/09/04 07:41:30;;;;;;;6.47;5.88;;;19.20;88.40;;;;;;5054505;28;20192;-76
2022/09/04 07:44:17;;;;;;;6.20;5.03;;;19.20;88.90;;;;;;5049914;28;20223;-76
2022/09/04 07:47:11;;;;;;;6.13;5.00;;;19.30;88.40;;;;;;5051113;28;20256;-76
2022/09/04 07:50:12;;;;;;;5.97;5.43;;;19.50;87.80;;;;;;5051993;28;20241;-76
2022/09/04 07:52:41;;;;;;;7.45;6.20;;;19.60;88.00;;;;;;5054378;28;20182;-76
2022/09/04 07:55:40;;;;;;;7.93;6.10;;;19.70;87.80;;;;;;5056922;28;20229;-76
2022/09/04 07:58:37;;;;;;;5.95;5.45;;;19.80;87.30;;;;;;5055292;28;20185;-76
2022/09/04 08:01:25;;;;;;;6.20;5.47;;;19.80;87.60;;;;;;5052545;28;20186;-76
2022/09/04 08:04:05;;;;;;;6.45;5.63;;;19.90;87.20;;;;;;5054491;28;20648;-76
2022/09/04 08:06:52;;;;;;;6.65;5.85;;;20.00;86.90;;;;;;5050638;28;20847;-76
2022/09/04 08:09:38;;;;;;;5.97;5.30;;;20.10;87.30;;;;;;5056942;28;20197;-76
2022/09/04 08:12:46;;;;;;;4.93;4.53;;;20.20;86.90;;;;;;5057021;28;20719;-76
2022/09/04 08:15:23;;;;;;;6.20;5.03;;;20.30;87.10;;;;;;5005396;28;20290;-76
2022/09/04 08:18:06;;;;;;;6.05;5.18;;;20.40;86.60;;;;;;5006113;28;20191;-76
2022/09/04 08:21:02;;;;;;;6.13;5.53;;;20.40;86.60;;;;;;5022196;28;20726;-76
2022/09/04 08:23:41;;;;;;;6.40;5.80;;;20.60;86.40;;;;;;5020064;28;20208;-76
2022/09/04 08:26:21;;;;;;;6.45;5.85;;;20.70;85.90;;;;;;5005970;28;20184;-76
2022/09/04 08:29:20;;;;;;;5.57;5.07;;;20.80;85.20;;;;;;5021744;28;20636;-76
2022/09/04 08:31:54;;;;;;;5.65;5.22;;;21.00;85.40;;;;;;5022677;28;20254;-76
2022/09/04 08:34:37;;;;;;;5.65;5.25;;;21.10;84.80;;;;;;5005512;28;20188;-76
2022/09/04 08:37:12;;;;;;;8.60;5.45;;;21.30;83.50;;;;;;5022147;28;20199;-76
2022/09/04 08:40:17;;;;;;;8.07;5.95;;;21.40;83.20;;;;;;5020937;28;20203;-76
2022/09/04 08:43:10;;;;;;;5.35;4.95;;;21.50;82.30;;;;;;5020702;28;20274;-76
2022/09/04 08:45:42;;;;;;;6.00;5.53;;;21.60;82.10;;;;;;5022106;28;20206;-76
2022/09/04 08:48:17;;;;;;;5.53;5.13;;;21.80;81.90;;;;;;5020910;28;20216;-76
2022/09/04 08:51:15;;;;;;;5.30;4.93;;;22.00;81.40;;;;;;5022492;28;20191;-76
2022/09/04 08:54:13;;;;;;;5.13;4.72;;;22.40;80.30;;;;;;5052595;28;20266;-76
2022/09/04 08:56:41;;;;;;;9.57;5.35;;;22.90;79.30;;;;;;5054122;28;20257;-76
2022/09/04 08:59:44;;;;;;;4.97;4.60;;;23.50;78.30;;;;;;5049689;28;20175;-77
2022/09/04 09:02:22;;;;;;;4.57;4.28;;;24.20;77.00;;;;;;5055190;28;20277;-76
2022/09/04 09:05:09;;;;;;;3.50;3.40;;;24.90;72.90;;;;;;5051985;28;20253;-76
2022/09/04 09:07:57;;;;;;;3.40;3.25;;;25.70;71.50;;;;;;5049303;28;20279;-77
2022/09/04 09:10:41;;;;;;;3.30;3.20;;;26.30;69.60;;;;;;5048789;28;20258;-77
2022/09/04 09:13:16;;;;;;;3.38;3.08;;;27.10;69.70;;;;;;5052130;28;20642;-77
2022/09/04 09:16:02;;;;;;;3.30;3.17;;;27.90;68.40;;;;;;5053484;28;20251;-77
2022/09/04 09:18:37;;;;;;;2.90;2.80;;;28.80;67.40;;;;;;5052000;28;20213;-76
2022/09/04 09:21:10;;;;;;;2.58;2.47;;;29.50;65.60;;;;;;5054617;28;20201;-76
2022/09/04 09:23:54;;;;;;;3.38;3.10;;;30.20;65.50;;;;;;5053682;28;20214;-75
2022/09/04 09:26:34;;;;;;;3.33;3.17;;;30.90;61.50;;;;;;5050159;28;20179;-76
2022/09/04 09:29:47;;;;;;;2.83;2.72;;;31.60;63.70;;;;;;5051580;28;20179;-76
2022/09/04 09:32:13;;;;;;;3.28;3.17;;;32.20;61.40;;;;;;5021062;28;20673;-76
2022/09/04 09:35:16;;;;;;;2.75;2.67;;;32.90;61.60;;;;;;5020281;28;20246;-76
2022/09/04 09:38:00;;;;;;;3.15;2.90;;;33.70;61.30;;;;;;5020854;28;20183;-77
2022/09/04 09:40:54;;;;;;;2.70;2.70;;;34.40;60.00;;;;;;5022060;28;20192;-75
2022/09/04 09:43:40;;;;;;;2.80;2.70;;;35.10;59.00;;;;;;5004630;28;20224;-76
2022/09/04 09:46:35;;;;;;;2.50;2.40;;;35.70;58.00;;;;;;5005744;28;20278;-75
2022/09/04 09:49:12;;;;;;;2.90;2.80;;;36.10;57.80;;;;;;5021797;28;20199;-77
2022/09/04 09:52:04;;;;;;;3.03;2.92;;;36.70;57.10;;;;;;5021208;28;20617;-77
2022/09/04 09:54:44;;;;;;;2.85;2.65;;;37.00;56.70;;;;;;5021585;28;20187;-77
2022/09/04 09:57:34;;;;;;;2.65;2.55;;;37.50;55.10;;;;;;5020524;28;20282;-75
2022/09/04 10:00:45;;;;;;;2.58;2.58;;;37.90;55.30;;;;;;5019143;28;20600;-75
2022/09/04 10:03:38;;;;;;;2.45;2.45;;;38.10;49.00;;;;;;5025225;28;20277;-77
2022/09/04 10:06:07;;;;;;;2.63;2.55;;;37.90;51.50;;;;;;5024637;28;20183;-75
2022/09/04 10:08:59;;;;;;;2.70;2.60;;;38.10;52.90;;;;;;5041358;28;20581;-75
2022/09/04 10:11:53;;;;;;;2.40;2.40;;;38.00;48.30;;;;;;5052265;28;20183;-76
2022/09/04 10:14:27;;;;;;;2.25;2.25;;;38.20;50.20;;;;;;5050928;28;20201;-75
2022/09/04 10:17:21;;;;;;;2.65;2.65;;;38.10;51.20;;;;;;5054267;28;20198;-76
2022/09/04 10:20:24;;;;;;;3.20;3.10;;;38.30;49.10;;;;;;5053746;28;20179;-78
2022/09/04 10:23:24;;;;;;;2.78;2.65;;;38.70;51.70;;;;;;5059240;28;20179;-77
2022/09/04 10:26:15;;;;;;;2.72;2.13;;;39.30;51.30;;;;;;5053767;28;20271;-78
2022/09/04 10:29:04;;;;;;;2.55;2.53;;;39.90;51.40;;;;;;5058683;28;20210;-77
2022/09/04 10:32:08;;;;;;;2.97;2.88;;;40.40;53.90;;;;;;5057900;28;20183;-78
2022/09/04 10:34:49;;;;;;;3.00;2.90;;;41.00;50.50;;;;;;5058015;28;20331;-77
2022/09/04 10:37:42;;;;;;;2.20;2.10;;;41.40;51.70;;;;;;5052832;28;20270;-77
2022/09/04 10:40:34;;;;;;;2.40;2.40;;;41.60;49.70;;;;;;5055771;28;20219;-77
2022/09/04 10:43:30;;;;;;;2.60;2.60;;;41.80;51.90;;;;;;5056049;28;20211;-77
2022/09/04 10:46:10;;;;;;;2.35;2.35;;;42.10;51.60;;;;;;5050586;28;20265;-77
2022/09/04 10:48:41;;;;;;;2.25;2.25;;;42.50;44.40;;;;;;5065662;28;20266;-77
2022/09/04 10:51:51;;;;;;;3.10;3.00;;;42.90;45.10;;;;;;5053941;28;20683;-77
2022/09/04 10:54:49;;;;;;;2.55;2.55;;;43.10;43.40;;;;;;5024647;28;20708;-77
2022/09/04 10:57:26;;;;;;;2.47;2.40;;;42.70;44.10;;;;;;5024435;28;20212;-77
2022/09/04 11:00:17;;;;;;;2.60;2.50;;;42.60;49.00;;;;;;5007030;28;20325;-78
2022/09/04 11:03:19;;;;;;;2.53;2.42;;;42.60;45.60;;;;;;5023484;28;20184;-77
2022/09/04 11:06:01;;;;;;;2.50;2.30;;;42.60;44.70;;;;;;5023293;28;20555;-77
2022/09/04 11:08:35;;;;;;;2.72;2.72;;;42.60;43.20;;;;;;5023340;28;20704;-77
2022/09/04 11:11:09;;;;;;;3.00;2.90;;;42.60;45.80;;;;;;5021618;28;20188;-77
2022/09/04 11:13:59;;;;;;;2.00;2.00;;;42.60;47.40;;;;;;5023664;28;20280;-77
2022/09/04 11:16:47;;;;;;;2.58;2.47;;;42.30;44.10;;;;;;5017716;28;20199;-76
2022/09/04 11:19:13;;;;;;;2.25;2.25;;;42.10;44.70;;;;;;5024193;28;20708;-77
2022/09/04 11:21:45;;;;;;;2.78;2.67;;;42.20;46.20;;;;;;5023702;28;20188;-76
2022/09/04 11:24:32;;;;;;;2.72;2.63;;;42.30;45.60;;;;;;5022580;28;20227;-77
2022/09/04 11:27:29;;;;;;;2.83;2.40;;;42.70;43.70;;;;;;5024018;28;20193;-77
2022/09/04 11:30:28;;;;;;;2.08;2.08;;;43.00;45.00;;;;;;5041734;28;20193;-77
2022/09/04 11:33:21;;;;;;;2.40;2.40;;;43.30;44.70;;;;;;5052146;28;20668;-77
2022/09/04 11:35:59;;;;;;;2.05;2.05;;;43.50;42.50;;;;;;5055596;28;20198;-75
2022/09/04 11:39:11;;;;;;;2.25;2.25;;;43.60;44.20;;;;;;5052082;28;20186;-76
2022/09/04 11:41:49;;;;;;;2.08;2.08;;;43.70;42.10;;;;;;5054675;28;20179;-75
2022/09/04 11:44:34;;;;;;;2.30;2.30;;;43.70;42.60;;;;;;5052417;28;20598;-77
2022/09/04 11:47:51;;;;;;;1.80;1.80;;;43.60;46.40;;;;;;5058383;28;20283;-75
2022/09/04 11:50:31;;;;;;;1.77;1.67;;;43.50;42.40;;;;;;4976383;28;20192;-76
2022/09/04 11:53:11;;;;;;;2.17;2.17;;;43.60;43.30;;;;;;4995483;28;20196;-77
2022/09/04 11:55:56;;;;;;;1.85;1.85;;;43.60;42.30;;;;;;4989313;28;20208;-77
2022/09/04 11:58:39;;;;;;;2.00;2.00;;;43.20;42.50;;;;;;4988753;28;20275;-76
2022/09/04 12:01:22;;;;;;;2.45;2.25;;;42.90;42.70;;;;;;4992553;28;20393;-76
2022/09/04 12:03:59;;;;;;;2.80;1.80;;;42.70;42.90;;;;;;4992099;28;20278;-76
2022/09/04 12:06:37;;;;;;;1.95;1.95;;;42.50;43.70;;;;;;4992003;28;20208;-77
2022/09/04 12:09:38;;;;;;;2.17;2.17;;;42.40;45.50;;;;;;4990909;28;20660;-76
2022/09/04 12:12:15;;;;;;;2.00;2.00;;;42.50;42.70;;;;;;4943279;28;20208;-76
2022/09/04 12:15:01;;;;;;;2.10;2.10;;;42.30;44.40;;;;;;4945410;29;20200;-76
2022/09/04 12:17:55;;;;;;;1.50;1.50;;;42.30;43.50;;;;;;4944644;29;20203;-76
2022/09/04 12:20:46;;;;;;;3.83;1.83;;;42.50;43.20;;;;;;4945067;29;20582;-76
2022/09/04 12:23:31;;;;;;;2.35;2.15;;;42.60;41.80;;;;;;4944846;28;20232;-76
2022/09/04 12:26:22;;;;;;;2.85;2.00;;;42.40;43.60;;;;;;4981877;28;20266;-76
2022/09/04 12:29:25;;;;;;;2.10;2.10;;;41.90;43.70;;;;;;4963862;28;20214;-76
2022/09/04 12:32:29;;;;;;;1.60;1.60;;;41.40;43.40;;;;;;4963541;28;20710;-75
2022/09/04 12:35:11;;;;;;;2.17;2.17;;;40.60;43.70;;;;;;4898620;29;20388;-76
2022/09/04 12:38:22;;;;;;;1.90;1.80;;;39.40;45.00;;;;;;4901849;29;20203;-75
2022/09/04 12:41:00;;;;;;;2.15;2.05;;;38.60;45.40;;;;;;4898665;29;20215;-76
2022/09/04 12:44:00;;;;;;;2.05;1.95;;;38.30;47.90;;;;;;4898459;29;20240;-74
2022/09/04 12:46:47;;;;;;;1.80;1.80;;;37.50;45.40;;;;;;4903060;29;20200;-76
2022/09/04 12:49:31;;;;;;;1.60;1.50;;;37.00;48.30;;;;;;4911787;29;20297;-75
2022/09/04 12:52:06;;;;;;;1.88;1.88;;;36.30;49.60;;;;;;4935239;29;20633;-76
2022/09/04 12:54:51;;;;;;;1.90;1.90;;;35.60;48.00;;;;;;4934940;29;20200;-75
2022/09/04 12:57:29;;;;;;;1.83;1.83;;;35.10;49.10;;;;;;4933554;29;20210;-75
2022/09/04 13:00:15;;;;;;;1.70;1.70;;;34.50;51.00;;;;;;4937170;29;20187;-75
2022/09/04 13:03:00;;;;;;;1.85;1.85;;;34.00;51.90;;;;;;4934179;29;20187;-75
2022/09/04 13:05:46;;;;;;;1.77;1.77;;;33.20;52.00;;;;;;4955568;28;20883;-75
2022/09/04 13:08:28;;;;;;;1.70;1.70;;;32.40;53.50;;;;;;4992873;28;20188;-75
2022/09/04 13:11:26;;;;;;;2.05;1.95;;;32.00;54.40;;;;;;5001983;28;20236;-75
2022/09/04 13:14:16;;;;;;;1.35;1.35;;;31.60;54.00;;;;;;5002477;28;20196;-75
2022/09/04 13:16:49;;;;;;;1.48;1.48;;;31.60;52.90;;;;;;5002252;28;20200;-75
2022/09/04 13:19:36;;;;;;;1.23;1.23;;;31.40;54.50;;;;;;5002371;28;20698;-75
2022/09/04 13:22:19;;;;;;;2.58;1.60;;;31.10;55.60;;;;;;5002055;28;20191;-75
2022/09/04 13:25:24;;;;;;;1.33;1.33;;;30.80;55.00;;;;;;5001441;28;20851;-75
2022/09/04 13:27:58;;;;;;;1.35;1.35;;;30.50;53.50;;;;;;5016954;28;20188;-75
2022/09/04 13:30:26;;;;;;;1.48;1.48;;;30.10;55.40;;;;;;5001994;28;20225;-75
2022/09/04 13:33:03;;;;;;;1.38;1.38;;;29.80;55.90;;;;;;5002267;28;20690;-75
2022/09/04 13:35:58;;;;;;;2.92;1.38;;;29.80;55.60;;;;;;5004190;28;20196;-75
2022/09/04 13:38:36;;;;;;;2.65;1.63;;;29.50;54.80;;;;;;5005996;28;20247;-75
2022/09/04 13:41:38;;;;;;;1.40;1.40;;;29.40;56.50;;;;;;5005740;28;20184;-75
2022/09/04 13:44:28;;;;;;;1.52;1.52;;;29.30;58.10;;;;;;5004874;28;20232;-75
2022/09/04 13:46:56;;;;;;;1.58;1.30;;;29.30;59.00;;;;;;5005482;28;20193;-75
2022/09/04 13:49:31;;;;;;;1.08;1.08;;;29.40;59.40;;;;;;5024030;28;20274;-75
2022/09/04 13:52:24;;;;;;;1.02;1.02;;;29.40;60.20;;;;;;5054977;28;20700;-75
2022/09/04 13:55:01;;;;;;;1.10;1.10;;;29.40;60.20;;;;;;5051562;28;20191;-75
2022/09/04 13:57:34;;;;;;;2.28;1.50;;;29.40;60.20;;;;;;5054332;28;20566;-75
2022/09/04 14:00:04;;;;;;;1.15;1.15;;;29.40;59.80;;;;;;5054820;28;20845;-75
2022/09/04 14:02:30;;;;;;;1.23;1.23;;;29.40;59.80;;;;;;5049687;28;20190;-75
2022/09/04 14:05:07;;;;;;;1.40;1.40;;;29.30;60.70;;;;;;5059124;28;20310;-75
2022/09/04 14:07:35;;;;;;;1.25;1.25;;;29.40;61.00;;;;;;5055527;28;20256;-75
2022/09/04 14:10:09;;;;;;;1.33;1.33;;;29.40;60.80;;;;;;5057925;28;20769;-75
2022/09/04 14:12:54;;;;;;;1.10;1.10;;;29.40;62.00;;;;;;5055783;28;20605;-75
2022/09/04 14:15:42;;;;;;;2.25;1.23;;;29.70;60.80;;;;;;5054904;28;20262;-75
2022/09/04 14:18:26;;;;;;;0.98;0.98;;;30.20;60.60;;;;;;5057444;28;20221;-76
2022/09/04 14:21:02;;;;;;;1.02;1.02;;;30.70;60.20;;;;;;5057715;28;20270;-75
2022/09/04 14:23:41;;;;;;;1.08;1.08;;;31.30;59.60;;;;;;5072670;28;20219;-75